createdAt,value
2019-04-10T00:01:17.346Z,31.43
2019-04-10T00:03:56.746Z,31.38
2019-04-10T00:06:34.052Z,31.53
2019-04-10T00:09:12.764Z,31.55
2019-04-10T00:11:51.378Z,31.42
2019-04-10T00:14:28.896Z,31.56
2019-04-10T00:17:06.981Z,31.59
2019-04-10T00:19:45.589Z,31.52
2019-04-10T00:22:24.321Z,31.51
2019-04-10T00:25:02.328Z,31.73
2019-04-10T00:27:40.958Z,31.62
2019-04-10T00:30:20.773Z,31.66
2019-04-10T00:32:58.565Z,31.82
2019-04-10T00:35:37.282Z,32.28
2019-04-10T00:38:15.742Z,32.41
2019-04-10T00:40:55.232Z,32.09
2019-04-10T00:43:32.990Z,32.09
2019-04-10T00:46:10.569Z,31.90
2019-04-10T00:48:48.472Z,32.43
2019-04-10T00:51:26.428Z,32.80
2019-04-10T00:54:05.599Z,32.53
2019-04-10T00:56:43.640Z,32.36
2019-04-10T00:59:21.267Z,32.59
2019-04-10T01:02:00.376Z,32.76
2019-04-10T01:04:38.378Z,32.82
2019-04-10T01:07:17.234Z,32.60
2019-04-10T01:09:55.569Z,32.80
2019-04-10T01:12:34.200Z,33.39
2019-04-10T01:15:12.146Z,33.69
2019-04-10T01:17:50.638Z,33.22
2019-04-10T01:20:29.339Z,33.72
2019-04-10T01:23:07.876Z,34.06
2019-04-10T01:25:46.526Z,34.00
2019-04-10T01:28:24.792Z,33.75
2019-04-10T01:31:02.703Z,33.02
2019-04-10T01:33:40.895Z,32.97
2019-04-10T01:36:18.623Z,32.93
2019-04-10T01:38:58.376Z,32.85
2019-04-10T01:41:36.350Z,32.96
2019-04-10T01:44:15.275Z,33.46
2019-04-10T01:46:52.964Z,33.73
2019-04-10T01:49:31.470Z,33.81
2019-04-10T01:52:10.882Z,34.48
2019-04-10T01:54:49.265Z,35.02
2019-04-10T01:57:28.505Z,35.27
2019-04-10T02:00:06.673Z,33.86
2019-04-10T02:03:03.485Z,33.33
2019-04-10T02:05:42.845Z,33.71
2019-04-10T02:08:21.448Z,33.58
2019-04-10T02:11:00.651Z,33.68
2019-04-10T02:13:39.256Z,33.34
2019-04-10T02:16:17.209Z,33.06
2019-04-10T02:18:55.043Z,33.31
2019-04-10T02:21:32.119Z,33.14
2019-04-10T02:24:11.135Z,32.87
2019-04-10T02:26:49.850Z,33.66
2019-04-10T02:29:28.046Z,33.62
2019-04-10T02:32:06.347Z,33.65
2019-04-10T02:34:45.998Z,33.53
2019-04-10T02:37:25.078Z,33.59
2019-04-10T02:40:04.977Z,33.94
2019-04-10T02:42:45.005Z,34.37
2019-04-10T02:45:23.782Z,34.03
2019-04-10T02:48:04.020Z,34.53
2019-04-10T02:50:43.040Z,34.32
2019-04-10T02:53:21.579Z,34.46
2019-04-10T02:56:00.446Z,34.41
2019-04-10T02:58:38.576Z,35.07
2019-04-10T03:01:17.481Z,34.63
2019-04-10T03:03:55.747Z,35.74
2019-04-10T03:06:33.569Z,35.89
2019-04-10T03:09:28.866Z,35.93
2019-04-10T03:11:52.019Z,36.15
2019-04-10T03:14:30.160Z,36.03
2019-04-10T03:17:08.166Z,36.02
2019-04-10T03:19:45.849Z,36.20
2019-04-10T03:22:23.143Z,35.60
2019-04-10T03:25:00.588Z,35.12
2019-04-10T03:27:38.720Z,35.12
2019-04-10T03:30:18.466Z,34.86
2019-04-10T03:33:16.136Z,35.37
2019-04-10T03:35:52.220Z,35.20
2019-04-10T03:38:30.463Z,35.03
2019-04-10T03:41:08.379Z,35.02
2019-04-10T03:43:45.843Z,35.55
2019-04-10T03:46:24.297Z,35.40
2019-04-10T03:49:01.939Z,35.64
2019-04-10T03:51:40.843Z,35.32
2019-04-10T03:54:18.677Z,36.99
2019-04-10T03:56:56.278Z,37.37
2019-04-10T03:59:33.778Z,36.83
2019-04-10T04:02:12.018Z,36.16
2019-04-10T04:04:50.094Z,36.64
2019-04-10T04:07:27.424Z,35.89
2019-04-10T04:10:05.121Z,36.26
2019-04-10T04:12:42.638Z,35.72
2019-04-10T04:15:21.884Z,36.35
2019-04-10T04:18:00.362Z,37.43
2019-04-10T04:20:39.184Z,36.07
2019-04-10T04:23:17.235Z,36.52
2019-04-10T04:25:54.782Z,36.73
2019-04-10T04:28:34.265Z,36.82
2019-04-10T04:31:12.695Z,36.58
2019-04-10T04:33:51.910Z,36.33
2019-04-10T04:36:29.469Z,37.08
2019-04-10T04:39:21.175Z,37.29
2019-04-10T04:41:48.715Z,37.57
2019-04-10T04:44:27.400Z,37.57
2019-04-10T04:47:06.192Z,37.79
2019-04-10T04:49:46.672Z,38.62
2019-04-10T04:52:25.858Z,36.64
2019-04-10T04:55:03.954Z,36.85
2019-04-10T04:57:42.260Z,37.11
2019-04-10T05:00:19.819Z,36.72
2019-04-10T05:02:57.736Z,37.96
2019-04-10T05:05:36.769Z,38.01
2019-04-10T05:08:15.286Z,38.29
2019-04-10T05:10:53.741Z,37.58
2019-04-10T05:13:31.339Z,36.84
2019-04-10T05:16:10.081Z,36.33
2019-04-10T05:18:47.791Z,37.41
2019-04-10T05:21:27.376Z,37.29
2019-04-10T05:24:05.404Z,36.69
2019-04-10T05:26:43.217Z,37.26
2019-04-10T05:29:21.722Z,36.90
2019-04-10T05:31:58.815Z,38.33
2019-04-10T05:34:36.877Z,38.59
2019-04-10T05:37:15.729Z,37.39
2019-04-10T05:39:53.943Z,36.69
2019-04-10T05:42:33.062Z,36.64
2019-04-10T05:45:10.978Z,36.44
2019-04-10T05:47:48.642Z,36.50
2019-04-10T05:50:26.292Z,36.07
2019-04-10T05:53:04.840Z,36.27
2019-04-10T05:55:42.022Z,35.28
2019-04-10T05:58:19.831Z,35.51
2019-04-10T06:01:00.921Z,35.15
2019-04-10T06:03:38.714Z,36.15
2019-04-10T06:06:17.318Z,36.24
2019-04-10T06:08:54.660Z,36.06
2019-04-10T06:11:33.121Z,35.95
2019-04-10T06:14:10.732Z,35.43
2019-04-10T06:16:48.964Z,35.59
2019-04-10T06:19:26.983Z,35.20
2019-04-10T06:22:05.203Z,35.09
2019-04-10T06:24:44.572Z,35.38
2019-04-10T06:27:22.321Z,35.80
2019-04-10T06:29:59.881Z,35.23
2019-04-10T06:32:39.655Z,35.01
2019-04-10T06:35:17.974Z,34.98
2019-04-10T06:37:55.125Z,35.21
2019-04-10T06:40:33.485Z,35.52
2019-04-10T06:43:11.177Z,35.71
2019-04-10T06:45:48.742Z,35.34
2019-04-10T06:48:27.797Z,35.30
2019-04-10T06:51:06.130Z,35.65
2019-04-10T06:53:44.928Z,35.94
2019-04-10T06:56:23.462Z,36.04
2019-04-10T06:59:00.964Z,35.47
2019-04-10T07:01:47.738Z,35.74
2019-04-10T07:04:21.860Z,34.69
2019-04-10T07:07:04.670Z,35.15
2019-04-10T07:09:37.925Z,35.38
2019-04-10T07:12:16.598Z,35.01
2019-04-10T07:14:58.041Z,35.00
2019-04-10T07:17:37.395Z,35.19
2019-04-10T07:20:15.494Z,34.86
2019-04-10T07:22:53.337Z,35.34
2019-04-10T07:25:31.931Z,34.90
2019-04-10T07:28:11.950Z,35.46
2019-04-10T07:30:49.873Z,35.21
2019-04-10T07:33:28.782Z,35.16
2019-04-10T07:36:10.751Z,35.22
2019-04-10T07:38:46.866Z,35.75
2019-04-10T07:41:26.378Z,36.04
2019-04-10T07:44:05.803Z,36.24
2019-04-10T07:46:43.690Z,35.61
2019-04-10T07:49:22.188Z,36.06
2019-04-10T07:52:02.515Z,35.61
2019-04-10T07:54:43.070Z,35.88
2019-04-10T07:57:20.285Z,35.47
2019-04-10T07:59:58.826Z,35.39
2019-04-10T08:02:38.522Z,35.20
2019-04-10T08:05:16.770Z,35.31
2019-04-10T08:07:55.970Z,35.66
2019-04-10T08:10:34.845Z,35.60
2019-04-10T08:13:12.445Z,36.01
2019-04-10T08:15:50.696Z,35.92
2019-04-10T08:18:28.032Z,35.27
2019-04-10T08:21:05.384Z,35.33
2019-04-10T08:23:43.172Z,35.71
2019-04-10T08:26:21.419Z,35.62
2019-04-10T08:28:59.849Z,35.47
2019-04-10T08:31:39.787Z,35.32
2019-04-10T08:34:17.464Z,35.30
2019-04-10T08:36:56.825Z,35.63
2019-04-10T08:39:41.193Z,35.41
2019-04-10T08:42:14.807Z,35.31
2019-04-10T08:44:52.327Z,35.29
2019-04-10T08:47:31.340Z,35.18
2019-04-10T08:50:09.766Z,35.22
2019-04-10T08:52:47.274Z,35.19
2019-04-10T08:55:24.707Z,35.54
2019-04-10T08:58:02.885Z,35.12
2019-04-10T09:00:40.723Z,34.75
2019-04-10T09:03:19.492Z,34.89
2019-04-10T09:05:57.352Z,35.21
2019-04-10T09:08:37.152Z,34.87
2019-04-10T09:11:15.894Z,35.10
2019-04-10T09:13:53.534Z,35.08
2019-04-10T09:16:31.058Z,34.89
2019-04-10T09:19:09.772Z,35.05
2019-04-10T09:21:47.926Z,35.31
2019-04-10T09:24:25.830Z,35.17
2019-04-10T09:27:04.604Z,35.36
2019-04-10T09:29:42.637Z,35.23
2019-04-10T09:32:20.220Z,35.57
2019-04-10T09:34:58.764Z,35.21
2019-04-10T09:37:37.952Z,35.06
2019-04-10T09:40:16.324Z,35.04
2019-04-10T09:42:53.944Z,35.30
2019-04-10T09:45:31.306Z,35.45
2019-04-10T09:48:09.278Z,35.63
2019-04-10T09:50:48.160Z,35.12
2019-04-10T09:53:26.656Z,35.25
2019-04-10T09:56:05.232Z,34.97
2019-04-10T09:58:43.210Z,34.96
2019-04-10T10:01:22.043Z,35.16
2019-04-10T10:03:59.431Z,35.21
2019-04-10T10:06:38.437Z,35.00
2019-04-10T10:09:17.631Z,34.41
2019-04-10T10:11:55.702Z,34.46
2019-04-10T10:14:33.742Z,34.93
2019-04-10T10:17:10.837Z,34.84
2019-04-10T10:19:50.179Z,35.09
2019-04-10T10:22:29.332Z,34.97
2019-04-10T10:25:08.530Z,34.76
2019-04-10T10:27:46.607Z,34.43
2019-04-10T10:30:25.196Z,34.43
2019-04-10T10:33:03.650Z,34.43
2019-04-10T10:35:41.233Z,34.66
2019-04-10T10:38:21.089Z,34.41
2019-04-10T10:40:59.316Z,34.61
2019-04-10T10:43:37.506Z,34.56
2019-04-10T10:46:15.512Z,34.20
2019-04-10T10:48:52.423Z,33.94
2019-04-10T10:51:30.927Z,33.86
2019-04-10T10:54:10.582Z,33.81
2019-04-10T10:56:48.865Z,33.87
2019-04-10T10:59:27.360Z,34.10
2019-04-10T11:02:06.405Z,34.11
2019-04-10T11:04:45.290Z,34.08
2019-04-10T11:07:23.003Z,33.84
2019-04-10T11:10:01.564Z,33.73
2019-04-10T11:12:39.549Z,33.82
2019-04-10T11:15:18.518Z,33.95
2019-04-10T11:17:57.815Z,33.73
2019-04-10T11:20:36.358Z,33.71
2019-04-10T11:23:14.571Z,33.64
2019-04-10T11:25:53.885Z,33.74
2019-04-10T11:28:33.656Z,33.60
2019-04-10T11:31:11.123Z,33.16
2019-04-10T11:33:52.922Z,33.26
2019-04-10T11:36:29.883Z,33.58
2019-04-10T11:39:21.716Z,33.61
2019-04-10T11:41:53.091Z,33.44
2019-04-10T11:44:33.110Z,33.12
2019-04-10T11:47:10.638Z,33.13
2019-04-10T11:49:49.657Z,32.89
2019-04-10T11:55:12.704Z,32.82
2019-04-10T11:57:49.003Z,33.01
2019-04-10T12:03:22.067Z,33.42
2019-04-10T12:05:59.833Z,33.35
2019-04-10T12:09:03.702Z,33.33
2019-04-10T12:11:19.945Z,33.42
2019-04-10T12:13:58.930Z,33.38
2019-04-10T12:16:36.958Z,33.06
2019-04-10T12:19:15.616Z,32.93
2019-04-10T12:21:53.845Z,33.04
2019-04-10T12:24:32.162Z,33.39
2019-04-10T12:27:09.510Z,33.11
2019-04-10T12:29:48.845Z,32.47
2019-04-10T12:32:26.889Z,32.44
2019-04-10T12:35:04.673Z,32.53
2019-04-10T12:37:43.337Z,32.66
2019-04-10T12:40:21.528Z,32.61
2019-04-10T12:42:59.377Z,32.45
2019-04-10T12:45:38.231Z,32.40
2019-04-10T12:48:16.941Z,32.60
2019-04-10T12:50:55.138Z,32.33
2019-04-10T12:53:33.829Z,32.25
2019-04-10T12:56:11.456Z,32.13
2019-04-10T12:58:49.355Z,32.37
2019-04-10T13:01:28.893Z,32.43
2019-04-10T13:04:07.552Z,32.61
2019-04-10T13:06:46.400Z,32.43
2019-04-10T13:09:24.250Z,32.30
2019-04-10T13:12:02.814Z,32.26
2019-04-10T13:14:41.277Z,32.33
2019-04-10T13:17:20.279Z,32.58
2019-04-10T13:19:58.333Z,32.49
2019-04-10T13:22:36.214Z,32.58
2019-04-10T13:25:14.449Z,33.00
2019-04-10T13:27:52.723Z,33.25
2019-04-10T13:30:40.393Z,33.06
2019-04-10T13:33:10.385Z,32.37
2019-04-10T13:35:47.609Z,32.28
2019-04-10T13:38:30.164Z,32.25
2019-04-10T13:41:04.162Z,32.28
2019-04-10T13:43:42.266Z,31.90
2019-04-10T13:46:20.521Z,31.73
2019-04-10T13:48:59.738Z,32.31
2019-04-10T13:51:39.295Z,32.49
2019-04-10T13:54:17.612Z,32.48
2019-04-10T13:56:57.180Z,32.06
2019-04-10T13:59:35.189Z,32.02
2019-04-10T14:02:19.564Z,32.00
2019-04-10T14:04:59.708Z,31.87
2019-04-10T14:07:38.155Z,31.60
2019-04-10T14:10:16.224Z,31.67
2019-04-10T14:12:53.642Z,31.67
2019-04-10T14:15:31.792Z,31.79
2019-04-10T14:18:10.235Z,31.48
2019-04-10T14:20:48.651Z,31.45
2019-04-10T14:23:29.797Z,31.61
2019-04-10T14:26:20.310Z,31.74
2019-04-10T14:28:59.609Z,31.81
2019-04-10T14:31:51.055Z,31.86
2019-04-10T14:34:28.669Z,31.72
2019-04-10T14:37:09.511Z,31.96
2019-04-10T14:39:47.689Z,31.90
2019-04-10T14:42:26.612Z,31.91
2019-04-10T14:45:05.692Z,31.67
2019-04-10T14:47:43.458Z,31.52
2019-04-10T14:50:21.858Z,31.60
2019-04-10T14:53:01.309Z,31.63
2019-04-10T14:55:39.735Z,31.78
2019-04-10T14:58:25.163Z,31.43
2019-04-10T15:00:57.705Z,31.46
2019-04-10T15:03:36.171Z,31.77
2019-04-10T15:06:13.759Z,31.83
2019-04-10T15:08:52.199Z,31.48
2019-04-10T15:11:30.861Z,31.38
2019-04-10T15:14:08.186Z,31.55
2019-04-10T15:16:53.460Z,31.72
2019-04-10T15:19:26.860Z,31.75
2019-04-10T15:22:04.295Z,31.64
2019-04-10T15:24:42.763Z,31.64
2019-04-10T15:27:21.460Z,31.70
2019-04-10T15:29:59.657Z,31.48
2019-04-10T15:32:38.463Z,31.50
2019-04-10T15:35:16.020Z,31.30
2019-04-10T15:37:55.465Z,31.80
2019-04-10T15:40:34.551Z,31.45
2019-04-10T15:43:12.937Z,31.35
2019-04-10T15:45:50.470Z,31.16
2019-04-10T15:48:29.469Z,31.21
2019-04-10T15:51:07.763Z,31.32
2019-04-10T15:53:45.255Z,31.43
2019-04-10T15:56:23.512Z,31.39
2019-04-10T15:59:01.211Z,31.60
2019-04-10T16:01:39.683Z,31.31
2019-04-10T16:04:17.195Z,31.62
2019-04-10T16:06:54.544Z,31.31
2019-04-10T16:09:44.607Z,31.33
2019-04-10T16:12:14.824Z,31.24
2019-04-10T16:14:52.799Z,31.60
2019-04-10T16:17:44.034Z,31.44
2019-04-10T16:20:30.379Z,31.73
2019-04-10T16:23:21.918Z,31.46
2019-04-10T16:25:59.369Z,31.75
2019-04-10T16:28:37.952Z,31.60
2019-04-10T16:31:17.438Z,31.55
2019-04-10T16:33:55.098Z,31.36
2019-04-10T16:36:33.294Z,31.34
2019-04-10T16:39:15.449Z,31.14
2019-04-10T16:41:54.506Z,31.20
2019-04-10T16:44:33.189Z,31.30
2019-04-10T16:47:12.099Z,31.25
2019-04-10T16:49:49.570Z,31.29
2019-04-10T16:52:27.654Z,31.47
2019-04-10T16:55:06.283Z,31.32
2019-04-10T16:57:45.330Z,31.36
2019-04-10T17:00:24.286Z,31.13
2019-04-10T17:03:01.894Z,31.05
2019-04-10T17:05:41.744Z,31.16
2019-04-10T17:08:19.633Z,31.46
2019-04-10T17:10:56.914Z,31.25
2019-04-10T17:13:35.647Z,31.03
2019-04-10T17:16:15.453Z,31.50
2019-04-10T17:18:52.949Z,31.16
2019-04-10T17:21:31.134Z,31.26
2019-04-10T17:24:09.214Z,31.14
2019-04-10T17:26:48.786Z,31.00
2019-04-10T17:29:27.252Z,31.23
2019-04-10T17:32:06.763Z,31.26
2019-04-10T17:34:45.137Z,30.92
2019-04-10T17:37:23.429Z,31.00
2019-04-10T17:40:02.174Z,31.19
2019-04-10T17:42:41.255Z,31.19
2019-04-10T17:45:20.634Z,31.17
2019-04-10T17:47:59.335Z,30.83
2019-04-10T17:50:37.486Z,30.98
2019-04-10T17:53:16.558Z,31.17
2019-04-10T17:55:54.067Z,31.01
2019-04-10T17:58:35.879Z,30.92
2019-04-10T18:01:18.847Z,31.00
2019-04-10T18:04:00.537Z,30.89
2019-04-10T18:06:36.598Z,30.99
2019-04-10T18:09:15.830Z,31.27
2019-04-10T18:11:54.288Z,31.37
2019-04-10T18:14:34.628Z,31.14
2019-04-10T18:17:11.100Z,31.03
2019-04-10T18:19:50.240Z,31.08
2019-04-10T18:22:28.885Z,31.04
2019-04-10T18:25:05.966Z,30.85
2019-04-10T18:27:43.444Z,30.80
2019-04-10T18:30:21.680Z,30.84
2019-04-10T18:33:00.151Z,31.13
2019-04-10T18:35:40.717Z,31.18
2019-04-10T18:38:19.546Z,31.18
2019-04-10T18:41:02.073Z,31.23
2019-04-10T18:43:36.353Z,31.05
2019-04-10T18:46:17.615Z,31.18
2019-04-10T18:48:54.934Z,31.16
2019-04-10T18:51:34.083Z,30.82
2019-04-10T18:54:12.443Z,30.95
2019-04-10T18:56:49.783Z,30.92
2019-04-10T18:59:53.049Z,30.82
2019-04-10T19:02:45.919Z,30.75
2019-04-10T19:05:27.841Z,31.09
2019-04-10T19:08:07.402Z,30.98
2019-04-10T19:10:45.500Z,31.08
2019-04-10T19:13:24.837Z,30.72
2019-04-10T19:16:03.401Z,31.02
2019-04-10T19:18:40.832Z,30.99
2019-04-10T19:21:19.602Z,31.15
2019-04-10T19:23:57.597Z,30.91
2019-04-10T19:26:35.871Z,30.95
2019-04-10T19:29:13.495Z,30.93
2019-04-10T19:31:54.401Z,30.97
2019-04-10T19:34:32.141Z,30.80
2019-04-10T19:37:09.727Z,30.81
2019-04-10T19:39:48.764Z,31.00
2019-04-10T19:42:27.344Z,31.32
2019-04-10T19:45:05.775Z,31.14
2019-04-10T19:47:44.507Z,30.99
2019-04-10T19:50:23.420Z,30.99
2019-04-10T19:53:01.239Z,30.95
2019-04-10T19:55:40.058Z,30.77
2019-04-10T19:58:18.261Z,30.81
2019-04-10T20:00:56.831Z,31.00
2019-04-10T20:03:35.358Z,31.12
2019-04-10T20:06:14.224Z,31.12
2019-04-10T20:08:52.228Z,31.08
2019-04-10T20:11:37.792Z,31.08
2019-04-10T20:14:10.443Z,31.29
2019-04-10T20:16:49.366Z,31.26
2019-04-10T20:19:26.939Z,30.98
2019-04-10T20:22:04.493Z,30.98
2019-04-10T20:24:43.173Z,31.18
2019-04-10T20:27:21.624Z,31.16
2019-04-10T20:29:59.396Z,31.21
2019-04-10T20:32:38.476Z,31.29
2019-04-10T20:35:16.210Z,31.36
2019-04-10T20:37:53.938Z,31.18
2019-04-10T20:40:31.430Z,31.04
2019-04-10T20:43:10.954Z,31.57
2019-04-10T20:45:49.599Z,31.61
2019-04-10T20:48:28.727Z,31.52
2019-04-10T20:51:06.531Z,31.34
2019-04-10T20:53:44.294Z,31.41
2019-04-10T20:56:22.422Z,31.56
2019-04-10T20:59:00.006Z,31.36
2019-04-10T21:01:37.733Z,31.47
2019-04-10T21:04:15.175Z,31.56
2019-04-10T21:06:52.956Z,31.36
2019-04-10T21:09:32.084Z,31.36
2019-04-10T21:12:13.157Z,31.10
2019-04-10T21:14:49.773Z,30.94
2019-04-10T21:17:27.828Z,31.36
2019-04-10T21:20:05.722Z,31.46
2019-04-10T21:22:43.568Z,31.56
2019-04-10T21:25:21.189Z,31.35
2019-04-10T21:28:00.331Z,31.28
2019-04-10T21:30:56.637Z,31.10
2019-04-10T21:34:01.535Z,31.24
2019-04-10T21:36:41.352Z,31.18
2019-04-10T21:39:19.167Z,30.98
2019-04-10T21:42:10.255Z,30.99
2019-04-10T21:44:37.212Z,30.84
2019-04-10T21:47:15.173Z,30.96
2019-04-10T21:49:53.418Z,30.82
2019-04-10T21:52:32.651Z,31.18
2019-04-10T21:55:10.699Z,31.25
2019-04-10T21:57:49.134Z,31.13
2019-04-10T22:00:41.371Z,31.17
2019-04-10T22:03:21.177Z,31.02
2019-04-10T22:06:16.059Z,31.14
2019-04-10T22:09:12.628Z,31.14
2019-04-10T22:11:53.153Z,31.13
2019-04-10T22:14:31.047Z,31.25
2019-04-10T22:17:10.800Z,31.24
2019-04-10T22:19:49.038Z,31.10
2019-04-10T22:22:26.675Z,30.90
2019-04-10T22:25:05.389Z,30.85
2019-04-10T22:27:43.532Z,30.63
2019-04-10T22:30:21.137Z,30.83
2019-04-10T22:32:59.816Z,31.06
2019-04-10T22:35:39.820Z,31.09
2019-04-10T22:38:17.653Z,30.84
2019-04-10T22:40:56.029Z,30.97
2019-04-10T22:43:33.966Z,31.14
2019-04-10T22:46:13.045Z,30.97
2019-04-10T22:48:50.450Z,30.91
2019-04-10T22:51:30.059Z,30.92
2019-04-10T22:54:08.132Z,31.35
2019-04-10T22:56:45.756Z,31.70
2019-04-10T22:59:24.221Z,31.53
2019-04-10T23:02:07.339Z,31.15
2019-04-10T23:04:42.749Z,31.09
2019-04-10T23:07:21.947Z,31.38
2019-04-10T23:10:00.460Z,31.40
2019-04-10T23:12:50.361Z,31.50
2019-04-10T23:15:19.538Z,31.37
2019-04-10T23:17:57.761Z,31.50
2019-04-10T23:20:36.149Z,31.37
2019-04-10T23:23:15.523Z,31.15
2019-04-10T23:25:53.100Z,31.27
2019-04-10T23:28:31.534Z,31.53
2019-04-10T23:31:10.084Z,31.64
2019-04-10T23:33:48.283Z,31.57
2019-04-10T23:36:26.477Z,31.45
2019-04-10T23:39:06.125Z,31.01
2019-04-10T23:41:43.408Z,30.88
2019-04-10T23:44:20.844Z,30.98
2019-04-10T23:46:58.402Z,31.13
2019-04-10T23:49:37.443Z,31.15
2019-04-10T23:52:15.817Z,31.61
2019-04-10T23:54:54.352Z,31.39
2019-04-10T23:57:31.566Z,31.37
